Gassaway, WV

6:54 AM EDT on August 25, 2016 (GMT -0400)
Frame Circle | | Change Station

Elev 890 ft 38.66 °N, 80.75 °W | Updated 11 seconds ago

Mostly Cloudy
Mostly Cloudy
68.6 °F
Feels Like 68.6 °F
N
0.0
Wind Variable Wind from WSW
Gusts 0.0 mph

Today
High -- | Low -- °F
--% Chance of Precip.
Yesterday
High -- | Low -- °F
Precip. -- in
Pressure 30.10 in
Visibility 10.0 miles
Clouds Scattered Clouds 6000 ft
Mostly Cloudy 8000 ft
Dew Point 66 °F
Humidity 93%
Rainfall 0.00 in
Snow Depth Not available.
6:46 AM 8:02 PM
Waning Gibbous, 47% visible
METAR KCRW 250954Z 18005KT 10SM SCT060 BKN080 24/21 A3013 RMK AO2 SLP193 T02390206 $
Pressure 30.10 in
Visibility 10.0 miles
Clouds Scattered Clouds 6000 ft
Mostly Cloudy 8000 ft
Dew Point 66 °F
Humidity 93%
Rainfall 0.00 in
Snow Depth Not available.
6:46 AM 8:02 PM
Waning Gibbous, 47% visible
METAR KCRW 250954Z 18005KT 10SM SCT060 BKN080 24/21 A3013 RMK AO2 SLP193 T02390206 $

10-Day Weather Forecast

Almanac

Astronomy

Aug. 25, 2016 Rise Set
Actual Time
Civil Twilight
Nautical Twilight
Astronomical Twilight
Moon
Length of Visible Light
Length of Day
Tomorrow will be .
, % of the Moon is Illuminated

Today's Extremes

State Highs State Lows

Community

WunderPhotos

Upload Photos

1,934,821 photos uploaded!

WunderBlog® & News

Nearby

Air Quality

  Air Quality AQ Index Pollutant
Not available.

Snow Depth

Station Depth Elevation

Earthquake Activity

City Distance Mag. Time & Date
Minimum magnitude displayed is 2.5.

Coastal Water Temperatures

Place Temperature

Stations

Nearby Weather Stations

Station Location Temp. Windchill Dew Point Humidity Wind Precip. Elev Updated Type
                   

Watches & Warnings

There are currently no watches in effect.